sensor_id;sensor_type;location;lat;lon;timestamp;P1;durP1;ratioP1;P2;durP2;ratioP2
23732;SDS011;12047;53.450;-2.286;2024-01-15T00:03:55;22.42;;;8.15;;
23732;SDS011;12047;53.450;-2.286;2024-01-15T00:08:56;13.05;;;7.53;;
23732;SDS011;12047;53.450;-2.286;2024-01-15T00:13:58;16.85;;;7.40;;
23732;SDS011;12047;53.450;-2.286;2024-01-15T00:18:58;11.90;;;7.25;;
23732;SDS011;12047;53.450;-2.286;2024-01-15T00:23:59;13.88;;;7.80;;
23732;SDS011;12047;53.450;-2.286;2024-01-15T00:29:00;16.67;;;8.00;;
23732;SDS011;12047;53.450;-2.286;2024-01-15T00:34:00;16.30;;;8.18;;
23732;SDS011;12047;53.450;-2.286;2024-01-15T00:39:01;14.25;;;8.68;;
23732;SDS011;12047;53.450;-2.286;2024-01-15T00:44:02;16.00;;;8.63;;
23732;SDS011;12047;53.450;-2.286;2024-01-15T00:49:03;13.07;;;7.07;;
23732;SDS011;12047;53.450;-2.286;2024-01-15T00:54:03;10.10;;;5.80;;
23732;SDS011;12047;53.450;-2.286;2024-01-15T00:59:04;11.93;;;6.60;;
23732;SDS011;12047;53.450;-2.286;2024-01-15T01:04:05;12.35;;;6.28;;
23732;SDS011;12047;53.450;-2.286;2024-01-15T01:09:05;10.82;;;5.53;;
23732;SDS011;12047;53.450;-2.286;2024-01-15T01:14:06;8.48;;;4.50;;
23732;SDS011;12047;53.450;-2.286;2024-01-15T01:19:06;8.48;;;4.45;;
23732;SDS011;12047;53.450;-2.286;2024-01-15T01:24:07;6.05;;;2.47;;
23732;SDS011;12047;53.450;-2.286;2024-01-15T01:29:07;2.90;;;1.60;;
23732;SDS011;12047;53.450;-2.286;2024-01-15T01:34:08;3.10;;;1.58;;
23732;SDS011;12047;53.450;-2.286;2024-01-15T01:39:09;3.35;;;1.05;;
23732;SDS011;12047;53.450;-2.286;2024-01-15T01:44:10;3.22;;;1.25;;
23732;SDS011;12047;53.450;-2.286;2024-01-15T01:49:13;3.22;;;1.10;;
23732;SDS011;12047;53.450;-2.286;2024-01-15T01:54:15;3.35;;;1.25;;
23732;SDS011;12047;53.450;-2.286;2024-01-15T01:59:16;4.43;;;1.30;;
23732;SDS011;12047;53.450;-2.286;2024-01-15T02:04:17;3.20;;;1.30;;
23732;SDS011;12047;53.450;-2.286;2024-01-15T02:09:18;3.60;;;1.58;;
23732;SDS011;12047;53.450;-2.286;2024-01-15T02:14:19;5.50;;;1.73;;
23732;SDS011;12047;53.450;-2.286;2024-01-15T02:19:19;4.30;;;1.50;;
23732;SDS011;12047;53.450;-2.286;2024-01-15T02:24:20;3.70;;;1.58;;
23732;SDS011;12047;53.450;-2.286;2024-01-15T02:29:20;4.22;;;1.58;;
23732;SDS011;12047;53.450;-2.286;2024-01-15T02:34:21;4.00;;;1.42;;
23732;SDS011;12047;53.450;-2.286;2024-01-15T02:39:22;2.88;;;1.35;;
23732;SDS011;12047;53.450;-2.286;2024-01-15T02:44:22;2.97;;;1.50;;
23732;SDS011;12047;53.450;-2.286;2024-01-15T02:49:23;3.60;;;1.42;;
23732;SDS011;12047;53.450;-2.286;2024-01-15T02:54:23;6.22;;;1.50;;
23732;SDS011;12047;53.450;-2.286;2024-01-15T02:59:24;4.25;;;1.73;;
23732;SDS011;12047;53.450;-2.286;2024-01-15T03:04:24;3.97;;;1.60;;
23732;SDS011;12047;53.450;-2.286;2024-01-15T03:09:25;5.35;;;1.80;;
23732;SDS011;12047;53.450;-2.286;2024-01-15T03:14:25;5.30;;;1.90;;
23732;SDS011;12047;53.450;-2.286;2024-01-15T03:19:26;7.72;;;1.92;;
23732;SDS011;12047;53.450;-2.286;2024-01-15T03:24:27;6.63;;;2.40;;
23732;SDS011;12047;53.450;-2.286;2024-01-15T03:29:27;7.03;;;3.10;;
23732;SDS011;12047;53.450;-2.286;2024-01-15T03:34:28;2.70;;;1.67;;
23732;SDS011;12047;53.450;-2.286;2024-01-15T03:39:28;6.22;;;2.60;;
23732;SDS011;12047;53.450;-2.286;2024-01-15T03:44:29;11.07;;;4.20;;
23732;SDS011;12047;53.450;-2.286;2024-01-15T03:49:29;6.82;;;4.20;;
23732;SDS011;12047;53.450;-2.286;2024-01-15T03:54:30;7.63;;;3.53;;
23732;SDS011;12047;53.450;-2.286;2024-01-15T03:59:30;4.95;;;2.45;;
23732;SDS011;12047;53.450;-2.286;2024-01-15T04:04:31;5.55;;;2.65;;
23732;SDS011;12047;53.450;-2.286;2024-01-15T04:09:31;6.30;;;2.92;;
23732;SDS011;12047;53.450;-2.286;2024-01-15T04:14:32;7.35;;;3.40;;
23732;SDS011;12047;53.450;-2.286;2024-01-15T04:19:32;8.65;;;3.80;;
23732;SDS011;12047;53.450;-2.286;2024-01-15T04:24:33;5.28;;;3.15;;
23732;SDS011;12047;53.450;-2.286;2024-01-15T04:29:33;8.30;;;3.53;;
23732;SDS011;12047;53.450;-2.286;2024-01-15T04:34:34;4.95;;;2.83;;
23732;SDS011;12047;53.450;-2.286;2024-01-15T04:39:35;10.23;;;2.95;;
23732;SDS011;12047;53.450;-2.286;2024-01-15T04:44:35;8.95;;;2.95;;
23732;SDS011;12047;53.450;-2.286;2024-01-15T04:49:36;6.78;;;2.75;;
23732;SDS011;12047;53.450;-2.286;2024-01-15T04:54:36;4.65;;;2.20;;
23732;SDS011;12047;53.450;-2.286;2024-01-15T04:59:38;5.20;;;2.80;;
23732;SDS011;12047;53.450;-2.286;2024-01-15T05:04:40;5.32;;;2.65;;
23732;SDS011;12047;53.450;-2.286;2024-01-15T05:09:42;4.80;;;2.83;;
23732;SDS011;12047;53.450;-2.286;2024-01-15T05:20:03;7.05;;;2.33;;
23732;SDS011;12047;53.450;-2.286;2024-01-15T05:25:05;6.65;;;2.80;;
23732;SDS011;12047;53.450;-2.286;2024-01-15T05:30:07;4.82;;;2.50;;
23732;SDS011;12047;53.450;-2.286;2024-01-15T05:35:08;6.20;;;3.22;;
23732;SDS011;12047;53.450;-2.286;2024-01-15T05:40:11;6.70;;;2.50;;
23732;SDS011;12047;53.450;-2.286;2024-01-15T05:45:18;7.72;;;2.40;;
23732;SDS011;12047;53.450;-2.286;2024-01-15T05:50:29;6.95;;;2.60;;
23732;SDS011;12047;53.450;-2.286;2024-01-15T05:56:18;9.25;;;2.97;;
23732;SDS011;12047;53.450;-2.286;2024-01-15T06:01:41;8.25;;;3.30;;
23732;SDS011;12047;53.450;-2.286;2024-01-15T06:06:45;7.18;;;2.65;;
23732;SDS011;12047;53.450;-2.286;2024-01-15T06:11:47;5.60;;;2.72;;
23732;SDS011;12047;53.450;-2.286;2024-01-15T06:16:48;6.68;;;2.72;;
23732;SDS011;12047;53.450;-2.286;2024-01-15T06:27:01;9.10;;;2.22;;
23732;SDS011;12047;53.450;-2.286;2024-01-15T06:32:03;5.75;;;2.42;;
23732;SDS011;12047;53.450;-2.286;2024-01-15T06:37:20;4.68;;;2.38;;
23732;SDS011;12047;53.450;-2.286;2024-01-15T06:42:24;5.20;;;2.33;;
23732;SDS011;12047;53.450;-2.286;2024-01-15T06:47:35;3.85;;;2.30;;
23732;SDS011;12047;53.450;-2.286;2024-01-15T06:52:42;6.88;;;2.70;;
23732;SDS011;12047;53.450;-2.286;2024-01-15T07:03:27;8.55;;;3.58;;
23732;SDS011;12047;53.450;-2.286;2024-01-15T07:08:49;8.15;;;3.78;;
23732;SDS011;12047;53.450;-2.286;2024-01-15T07:13:51;9.50;;;3.63;;
23732;SDS011;12047;53.450;-2.286;2024-01-15T07:18:53;9.93;;;4.93;;
23732;SDS011;12047;53.450;-2.286;2024-01-15T08:17:55;10.63;;;4.20;;
23732;SDS011;12047;53.450;-2.286;2024-01-15T09:19:51;6.50;;;2.08;;
23732;SDS011;12047;53.450;-2.286;2024-01-15T09:51:33;4.70;;;1.83;;
23732;SDS011;12047;53.450;-2.286;2024-01-15T10:02:43;10.45;;;1.50;;
23732;SDS011;12047;53.450;-2.286;2024-01-15T10:07:45;4.55;;;1.10;;
23732;SDS011;12047;53.450;-2.286;2024-01-15T10:12:50;6.13;;;1.75;;
23732;SDS011;12047;53.450;-2.286;2024-01-15T10:17:50;5.03;;;1.10;;
23732;SDS011;12047;53.450;-2.286;2024-01-15T10:22:51;3.28;;;1.10;;
23732;SDS011;12047;53.450;-2.286;2024-01-15T10:28:02;4.20;;;1.23;;
23732;SDS011;12047;53.450;-2.286;2024-01-15T10:33:05;7.53;;;1.10;;
23732;SDS011;12047;53.450;-2.286;2024-01-15T10:38:05;3.70;;;1.23;;
23732;SDS011;12047;53.450;-2.286;2024-01-15T10:43:06;8.02;;;1.05;;
23732;SDS011;12047;53.450;-2.286;2024-01-15T10:48:06;6.90;;;1.20;;
23732;SDS011;12047;53.450;-2.286;2024-01-15T10:53:08;8.27;;;1.15;;
23732;SDS011;12047;53.450;-2.286;2024-01-15T10:58:12;5.72;;;1.10;;
23732;SDS011;12047;53.450;-2.286;2024-01-15T11:03:17;5.15;;;1.10;;
23732;SDS011;12047;53.450;-2.286;2024-01-15T11:08:21;2.42;;;1.10;;
23732;SDS011;12047;53.450;-2.286;2024-01-15T11:18:42;4.55;;;1.30;;
23732;SDS011;12047;53.450;-2.286;2024-01-15T11:24:09;8.80;;;2.23;;
23732;SDS011;12047;53.450;-2.286;2024-01-15T11:29:30;5.88;;;1.80;;
23732;SDS011;12047;53.450;-2.286;2024-01-15T11:45:01;4.32;;;1.30;;
23732;SDS011;12047;53.450;-2.286;2024-01-15T11:50:04;7.22;;;1.45;;
23732;SDS011;12047;53.450;-2.286;2024-01-15T12:16:00;10.98;;;1.75;;
23732;SDS011;12047;53.450;-2.286;2024-01-15T12:21:05;19.15;;;2.05;;
23732;SDS011;12047;53.450;-2.286;2024-01-15T12:26:15;7.95;;;1.00;;
23732;SDS011;12047;53.450;-2.286;2024-01-15T12:31:17;5.07;;;1.45;;
23732;SDS011;12047;53.450;-2.286;2024-01-15T12:36:22;13.00;;;1.35;;
23732;SDS011;12047;53.450;-2.286;2024-01-15T12:41:51;9.63;;;1.10;;
23732;SDS011;12047;53.450;-2.286;2024-01-15T12:46:59;13.73;;;2.08;;
23732;SDS011;12047;53.450;-2.286;2024-01-15T12:52:18;3.63;;;1.17;;
23732;SDS011;12047;53.450;-2.286;2024-01-15T12:57:57;6.30;;;1.23;;
23732;SDS011;12047;53.450;-2.286;2024-01-15T13:03:13;10.13;;;0.90;;
23732;SDS011;12047;53.450;-2.286;2024-01-15T13:08:14;10.85;;;1.30;;
23732;SDS011;12047;53.450;-2.286;2024-01-15T13:13:15;4.18;;;0.98;;
23732;SDS011;12047;53.450;-2.286;2024-01-15T13:18:29;8.07;;;1.02;;
23732;SDS011;12047;53.450;-2.286;2024-01-15T13:33:52;7.95;;;1.40;;
23732;SDS011;12047;53.450;-2.286;2024-01-15T13:38:59;5.13;;;1.10;;
23732;SDS011;12047;53.450;-2.286;2024-01-15T13:44:23;5.75;;;1.00;;
23732;SDS011;12047;53.450;-2.286;2024-01-15T13:49:29;8.00;;;1.50;;
23732;SDS011;12047;53.450;-2.286;2024-01-15T13:54:40;8.93;;;1.73;;
23732;SDS011;12047;53.450;-2.286;2024-01-15T13:59:42;3.05;;;0.90;;
23732;SDS011;12047;53.450;-2.286;2024-01-15T14:04:54;7.90;;;1.35;;
23732;SDS011;12047;53.450;-2.286;2024-01-15T14:15:18;10.05;;;1.30;;
23732;SDS011;12047;53.450;-2.286;2024-01-15T14:20:29;12.32;;;1.60;;
23732;SDS011;12047;53.450;-2.286;2024-01-15T14:25:30;8.93;;;1.27;;
23732;SDS011;12047;53.450;-2.286;2024-01-15T14:30:30;4.38;;;1.55;;
23732;SDS011;12047;53.450;-2.286;2024-01-15T14:35:31;8.52;;;1.00;;
23732;SDS011;12047;53.450;-2.286;2024-01-15T14:40:32;9.48;;;1.27;;
23732;SDS011;12047;53.450;-2.286;2024-01-15T14:51:30;6.20;;;1.45;;
23732;SDS011;12047;53.450;-2.286;2024-01-15T14:56:47;3.58;;;0.80;;
23732;SDS011;12047;53.450;-2.286;2024-01-15T15:12:17;10.00;;;1.30;;
23732;SDS011;12047;53.450;-2.286;2024-01-15T15:17:39;7.88;;;1.20;;
23732;SDS011;12047;53.450;-2.286;2024-01-15T15:22:41;6.95;;;1.50;;
23732;SDS011;12047;53.450;-2.286;2024-01-15T15:27:42;10.93;;;1.58;;
23732;SDS011;12047;53.450;-2.286;2024-01-15T15:32:43;6.57;;;1.45;;
23732;SDS011;12047;53.450;-2.286;2024-01-15T15:37:43;9.48;;;1.60;;
23732;SDS011;12047;53.450;-2.286;2024-01-15T15:42:49;6.30;;;1.35;;
23732;SDS011;12047;53.450;-2.286;2024-01-15T15:47:56;9.65;;;1.55;;
23732;SDS011;12047;53.450;-2.286;2024-01-15T15:52:56;8.23;;;2.08;;
23732;SDS011;12047;53.450;-2.286;2024-01-15T15:57:57;9.02;;;1.63;;
23732;SDS011;12047;53.450;-2.286;2024-01-15T16:02:58;9.55;;;1.80;;
23732;SDS011;12047;53.450;-2.286;2024-01-15T16:07:59;9.27;;;3.08;;
23732;SDS011;12047;53.450;-2.286;2024-01-15T16:13:00;6.47;;;2.50;;
23732;SDS011;12047;53.450;-2.286;2024-01-15T16:18:08;9.65;;;2.05;;
23732;SDS011;12047;53.450;-2.286;2024-01-15T16:23:15;9.10;;;1.85;;
23732;SDS011;12047;53.450;-2.286;2024-01-15T16:28:19;10.88;;;2.60;;
23732;SDS011;12047;53.450;-2.286;2024-01-15T16:33:25;8.93;;;2.67;;
23732;SDS011;12047;53.450;-2.286;2024-01-15T17:16:03;27.98;;;3.00;;
23732;SDS011;12047;53.450;-2.286;2024-01-15T17:57:43;22.40;;;5.65;;
23732;SDS011;12047;53.450;-2.286;2024-01-15T18:07:57;14.95;;;4.72;;
23732;SDS011;12047;53.450;-2.286;2024-01-15T18:18:15;28.15;;;11.70;;
23732;SDS011;12047;53.450;-2.286;2024-01-15T18:23:26;23.67;;;10.47;;
23732;SDS011;12047;53.450;-2.286;2024-01-15T18:28:48;25.92;;;7.25;;
23732;SDS011;12047;53.450;-2.286;2024-01-15T18:34:36;15.15;;;6.68;;
23732;SDS011;12047;53.450;-2.286;2024-01-15T18:40:18;21.17;;;9.13;;
23732;SDS011;12047;53.450;-2.286;2024-01-15T18:50:25;15.10;;;6.10;;
23732;SDS011;12047;53.450;-2.286;2024-01-15T18:55:27;13.07;;;5.32;;
23732;SDS011;12047;53.450;-2.286;2024-01-15T19:00:29;16.25;;;6.22;;
23732;SDS011;12047;53.450;-2.286;2024-01-15T19:05:29;124.88;;;43.15;;
23732;SDS011;12047;53.450;-2.286;2024-01-15T19:10:30;17.95;;;7.15;;
23732;SDS011;12047;53.450;-2.286;2024-01-15T19:15:32;22.00;;;9.18;;
23732;SDS011;12047;53.450;-2.286;2024-01-15T19:20:32;42.22;;;15.30;;
23732;SDS011;12047;53.450;-2.286;2024-01-15T19:31:05;33.38;;;13.85;;
23732;SDS011;12047;53.450;-2.286;2024-01-15T19:53:08;43.15;;;20.27;;
23732;SDS011;12047;53.450;-2.286;2024-01-15T19:58:19;41.97;;;19.85;;
23732;SDS011;12047;53.450;-2.286;2024-01-15T20:03:37;20.88;;;9.80;;
23732;SDS011;12047;53.450;-2.286;2024-01-15T20:08:41;31.13;;;16.08;;
23732;SDS011;12047;53.450;-2.286;2024-01-15T20:13:46;38.78;;;18.83;;
23732;SDS011;12047;53.450;-2.286;2024-01-15T20:18:47;65.57;;;25.08;;
23732;SDS011;12047;53.450;-2.286;2024-01-15T20:23:48;147.18;;;46.10;;
23732;SDS011;12047;53.450;-2.286;2024-01-15T20:28:48;120.03;;;40.50;;
23732;SDS011;12047;53.450;-2.286;2024-01-15T20:33:51;43.33;;;18.52;;
23732;SDS011;12047;53.450;-2.286;2024-01-15T20:38:51;30.00;;;14.60;;
23732;SDS011;12047;53.450;-2.286;2024-01-15T20:43:52;35.72;;;19.73;;
23732;SDS011;12047;53.450;-2.286;2024-01-15T20:48:53;43.40;;;21.65;;
23732;SDS011;12047;53.450;-2.286;2024-01-15T20:53:53;42.90;;;21.17;;
23732;SDS011;12047;53.450;-2.286;2024-01-15T20:58:54;50.50;;;21.33;;
23732;SDS011;12047;53.450;-2.286;2024-01-15T21:03:54;39.97;;;21.83;;
23732;SDS011;12047;53.450;-2.286;2024-01-15T21:08:55;48.60;;;22.48;;
23732;SDS011;12047;53.450;-2.286;2024-01-15T21:13:56;46.58;;;22.08;;
23732;SDS011;12047;53.450;-2.286;2024-01-15T21:18:57;41.17;;;20.27;;
23732;SDS011;12047;53.450;-2.286;2024-01-15T21:24:07;40.28;;;20.85;;
23732;SDS011;12047;53.450;-2.286;2024-01-15T21:29:11;47.53;;;24.10;;
23732;SDS011;12047;53.450;-2.286;2024-01-15T21:34:11;53.75;;;24.63;;
23732;SDS011;12047;53.450;-2.286;2024-01-15T21:39:14;65.97;;;30.75;;
23732;SDS011;12047;53.450;-2.286;2024-01-15T21:44:22;42.35;;;20.73;;
23732;SDS011;12047;53.450;-2.286;2024-01-15T21:49:23;36.88;;;20.40;;
23732;SDS011;12047;53.450;-2.286;2024-01-15T21:54:23;38.22;;;19.58;;
23732;SDS011;12047;53.450;-2.286;2024-01-15T21:59:27;40.60;;;19.55;;
23732;SDS011;12047;53.450;-2.286;2024-01-15T22:04:37;38.35;;;19.33;;
23732;SDS011;12047;53.450;-2.286;2024-01-15T22:09:38;32.60;;;17.03;;
23732;SDS011;12047;53.450;-2.286;2024-01-15T22:14:38;37.55;;;17.73;;
23732;SDS011;12047;53.450;-2.286;2024-01-15T22:19:39;37.03;;;16.63;;
23732;SDS011;12047;53.450;-2.286;2024-01-15T22:24:42;34.20;;;17.83;;
23732;SDS011;12047;53.450;-2.286;2024-01-15T22:29:42;33.92;;;17.30;;
23732;SDS011;12047;53.450;-2.286;2024-01-15T22:34:43;32.70;;;17.00;;
23732;SDS011;12047;53.450;-2.286;2024-01-15T22:39:44;31.80;;;15.40;;
23732;SDS011;12047;53.450;-2.286;2024-01-15T22:44:45;29.90;;;14.52;;
23732;SDS011;12047;53.450;-2.286;2024-01-15T22:49:45;27.25;;;13.23;;
23732;SDS011;12047;53.450;-2.286;2024-01-15T22:54:46;30.30;;;12.98;;
23732;SDS011;12047;53.450;-2.286;2024-01-15T22:59:49;26.95;;;12.70;;
23732;SDS011;12047;53.450;-2.286;2024-01-15T23:04:51;26.02;;;12.18;;
23732;SDS011;12047;53.450;-2.286;2024-01-15T23:09:52;24.27;;;11.02;;
23732;SDS011;12047;53.450;-2.286;2024-01-15T23:14:52;21.60;;;10.52;;
23732;SDS011;12047;53.450;-2.286;2024-01-15T23:19:53;21.98;;;10.00;;
23732;SDS011;12047;53.450;-2.286;2024-01-15T23:24:53;21.90;;;9.23;;
23732;SDS011;12047;53.450;-2.286;2024-01-15T23:29:54;20.58;;;9.52;;
23732;SDS011;12047;53.450;-2.286;2024-01-15T23:34:54;20.52;;;9.80;;
23732;SDS011;12047;53.450;-2.286;2024-01-15T23:39:55;20.13;;;10.00;;
23732;SDS011;12047;53.450;-2.286;2024-01-15T23:44:56;18.65;;;9.23;;
23732;SDS011;12047;53.450;-2.286;2024-01-15T23:49:57;22.02;;;9.85;;
23732;SDS011;12047;53.450;-2.286;2024-01-15T23:54:57;26.67;;;9.60;;
23732;SDS011;12047;53.450;-2.286;2024-01-15T23:59:57;21.60;;;8.60;;
